sensor_id;sensor_type;location;lat;lon;timestamp;P1;durP1;ratioP1;P2;durP2;ratioP2
76409;SDS011;65238;42.662;23.280;2022-12-08T00:01:28;74.57;;;36.50;;
76409;SDS011;65238;42.662;23.280;2022-12-08T00:03:56;87.43;;;39.38;;
76409;SDS011;65238;42.662;23.280;2022-12-08T00:06:23;82.10;;;37.38;;
76409;SDS011;65238;42.662;23.280;2022-12-08T00:09:17;72.88;;;36.80;;
76409;SDS011;65238;42.662;23.280;2022-12-08T00:16:58;77.95;;;36.72;;
76409;SDS011;65238;42.662;23.280;2022-12-08T00:19:25;69.55;;;35.72;;
76409;SDS011;65238;42.662;23.280;2022-12-08T00:21:51;76.72;;;36.80;;
76409;SDS011;65238;42.662;23.280;2022-12-08T00:24:18;70.53;;;35.08;;
76409;SDS011;65238;42.662;23.280;2022-12-08T00:26:44;73.85;;;35.03;;
76409;SDS011;65238;42.662;23.280;2022-12-08T00:29:10;75.47;;;36.47;;
76409;SDS011;65238;42.662;23.280;2022-12-08T00:31:35;69.32;;;33.53;;
76409;SDS011;65238;42.662;23.280;2022-12-08T00:34:01;66.65;;;32.33;;
76409;SDS011;65238;42.662;23.280;2022-12-08T00:36:27;67.80;;;33.42;;
76409;SDS011;65238;42.662;23.280;2022-12-08T00:38:52;61.83;;;30.95;;
76409;SDS011;65238;42.662;23.280;2022-12-08T00:41:19;69.60;;;31.73;;
76409;SDS011;65238;42.662;23.280;2022-12-08T00:44:09;64.97;;;31.13;;
76409;SDS011;65238;42.662;23.280;2022-12-08T00:46:35;69.45;;;31.30;;
76409;SDS011;65238;42.662;23.280;2022-12-08T00:49:02;58.10;;;29.00;;
76409;SDS011;65238;42.662;23.280;2022-12-08T00:51:28;63.40;;;29.05;;
76409;SDS011;65238;42.662;23.280;2022-12-08T00:53:53;65.80;;;30.75;;
76409;SDS011;65238;42.662;23.280;2022-12-08T00:56:19;57.88;;;28.73;;
76409;SDS011;65238;42.662;23.280;2022-12-08T00:58:45;62.35;;;29.17;;
76409;SDS011;65238;42.662;23.280;2022-12-08T01:01:11;61.22;;;28.55;;
76409;SDS011;65238;42.662;23.280;2022-12-08T01:03:37;59.35;;;29.20;;
76409;SDS011;65238;42.662;23.280;2022-12-08T01:06:03;55.13;;;28.23;;
76409;SDS011;65238;42.662;23.280;2022-12-08T01:08:29;55.63;;;28.40;;
76409;SDS011;65238;42.662;23.280;2022-12-08T01:10:54;54.88;;;28.08;;
76409;SDS011;65238;42.662;23.280;2022-12-08T01:13:20;61.45;;;29.17;;
76409;SDS011;65238;42.662;23.280;2022-12-08T01:15:45;54.10;;;27.27;;
76409;SDS011;65238;42.662;23.280;2022-12-08T01:18:11;62.22;;;27.80;;
76409;SDS011;65238;42.662;23.280;2022-12-08T01:20:36;59.60;;;27.05;;
76409;SDS011;65238;42.662;23.280;2022-12-08T01:23:02;54.83;;;27.13;;
76409;SDS011;65238;42.662;23.280;2022-12-08T01:25:27;51.80;;;25.98;;
76409;SDS011;65238;42.662;23.280;2022-12-08T01:27:52;52.85;;;25.13;;
76409;SDS011;65238;42.662;23.280;2022-12-08T01:30:18;50.05;;;26.40;;
76409;SDS011;65238;42.662;23.280;2022-12-08T01:32:44;48.05;;;24.80;;
76409;SDS011;65238;42.662;23.280;2022-12-08T01:35:10;48.70;;;24.15;;
76409;SDS011;65238;42.662;23.280;2022-12-08T01:37:35;54.47;;;25.85;;
76409;SDS011;65238;42.662;23.280;2022-12-08T01:40:00;50.20;;;24.45;;
76409;SDS011;65238;42.662;23.280;2022-12-08T01:42:26;47.70;;;24.33;;
76409;SDS011;65238;42.662;23.280;2022-12-08T01:44:52;49.38;;;25.40;;
76409;SDS011;65238;42.662;23.280;2022-12-08T01:47:23;56.38;;;26.92;;
76409;SDS011;65238;42.662;23.280;2022-12-08T01:49:53;58.65;;;27.50;;
76409;SDS011;65238;42.662;23.280;2022-12-08T01:52:21;57.25;;;28.38;;
76409;SDS011;65238;42.662;23.280;2022-12-08T01:54:59;56.63;;;27.48;;
76409;SDS011;65238;42.662;23.280;2022-12-08T01:57:33;50.00;;;25.63;;
76409;SDS011;65238;42.662;23.280;2022-12-08T02:00:19;51.42;;;25.65;;
76409;SDS011;65238;42.662;23.280;2022-12-08T02:02:51;51.72;;;24.58;;
76409;SDS011;65238;42.662;23.280;2022-12-08T02:05:17;52.80;;;24.35;;
76409;SDS011;65238;42.662;23.280;2022-12-08T02:07:45;59.42;;;25.25;;
76409;SDS011;65238;42.662;23.280;2022-12-08T02:10:12;48.95;;;23.50;;
76409;SDS011;65238;42.662;23.280;2022-12-08T02:12:41;47.97;;;22.67;;
76409;SDS011;65238;42.662;23.280;2022-12-08T02:15:10;46.50;;;22.83;;
76409;SDS011;65238;42.662;23.280;2022-12-08T02:20:48;43.13;;;22.33;;
76409;SDS011;65238;42.662;23.280;2022-12-08T02:23:37;46.63;;;23.63;;
76409;SDS011;65238;42.662;23.280;2022-12-08T02:34:35;45.88;;;23.92;;
76409;SDS011;65238;42.662;23.280;2022-12-08T02:39:40;43.35;;;22.67;;
76409;SDS011;65238;42.662;23.280;2022-12-08T02:42:26;40.83;;;20.27;;
76409;SDS011;65238;42.662;23.280;2022-12-08T02:45:03;44.92;;;22.27;;
76409;SDS011;65238;42.662;23.280;2022-12-08T02:47:36;44.75;;;22.13;;
76409;SDS011;65238;42.662;23.280;2022-12-08T02:50:02;39.95;;;21.25;;
76409;SDS011;65238;42.662;23.280;2022-12-08T02:54:57;41.20;;;20.23;;
76409;SDS011;65238;42.662;23.280;2022-12-08T03:00:20;39.55;;;21.02;;
76409;SDS011;65238;42.662;23.280;2022-12-08T03:11:05;47.85;;;19.60;;
76409;SDS011;65238;42.662;23.280;2022-12-08T03:13:39;42.85;;;21.60;;
76409;SDS011;65238;42.662;23.280;2022-12-08T03:16:08;42.28;;;20.33;;
76409;SDS011;65238;42.662;23.280;2022-12-08T03:18:37;42.38;;;21.00;;
76409;SDS011;65238;42.662;23.280;2022-12-08T03:21:05;44.65;;;21.25;;
76409;SDS011;65238;42.662;23.280;2022-12-08T03:23:31;43.42;;;21.15;;
76409;SDS011;65238;42.662;23.280;2022-12-08T03:25:58;42.30;;;20.35;;
76409;SDS011;65238;42.662;23.280;2022-12-08T03:28:28;41.13;;;20.52;;
76409;SDS011;65238;42.662;23.280;2022-12-08T03:30:54;37.28;;;19.60;;
76409;SDS011;65238;42.662;23.280;2022-12-08T03:33:23;41.40;;;19.67;;
76409;SDS011;65238;42.662;23.280;2022-12-08T03:35:50;40.25;;;19.73;;
76409;SDS011;65238;42.662;23.280;2022-12-08T03:38:16;39.25;;;18.73;;
76409;SDS011;65238;42.662;23.280;2022-12-08T03:40:42;39.90;;;18.92;;
76409;SDS011;65238;42.662;23.280;2022-12-08T03:43:08;38.72;;;20.08;;
76409;SDS011;65238;42.662;23.280;2022-12-08T03:45:34;41.38;;;19.40;;
76409;SDS011;65238;42.662;23.280;2022-12-08T03:47:59;38.58;;;17.48;;
76409;SDS011;65238;42.662;23.280;2022-12-08T03:50:25;37.85;;;19.30;;
76409;SDS011;65238;42.662;23.280;2022-12-08T03:52:50;42.50;;;20.75;;
76409;SDS011;65238;42.662;23.280;2022-12-08T03:55:16;38.15;;;19.30;;
76409;SDS011;65238;42.662;23.280;2022-12-08T03:57:41;37.78;;;18.75;;
76409;SDS011;65238;42.662;23.280;2022-12-08T04:00:08;37.95;;;19.15;;
76409;SDS011;65238;42.662;23.280;2022-12-08T04:02:37;36.92;;;19.20;;
76409;SDS011;65238;42.662;23.280;2022-12-08T04:05:02;40.58;;;18.98;;
76409;SDS011;65238;42.662;23.280;2022-12-08T04:07:28;38.50;;;19.50;;
76409;SDS011;65238;42.662;23.280;2022-12-08T04:09:54;39.03;;;20.98;;
76409;SDS011;65238;42.662;23.280;2022-12-08T04:12:19;41.28;;;21.02;;
76409;SDS011;65238;42.662;23.280;2022-12-08T04:14:44;47.55;;;23.05;;
76409;SDS011;65238;42.662;23.280;2022-12-08T04:17:10;37.95;;;20.55;;
76409;SDS011;65238;42.662;23.280;2022-12-08T04:19:35;34.70;;;18.83;;
76409;SDS011;65238;42.662;23.280;2022-12-08T04:22:01;44.67;;;21.95;;
76409;SDS011;65238;42.662;23.280;2022-12-08T04:24:26;48.80;;;22.63;;
76409;SDS011;65238;42.662;23.280;2022-12-08T04:26:52;47.50;;;24.73;;
76409;SDS011;65238;42.662;23.280;2022-12-08T04:29:17;46.45;;;22.02;;
76409;SDS011;65238;42.662;23.280;2022-12-08T04:31:42;46.55;;;23.27;;
76409;SDS011;65238;42.662;23.280;2022-12-08T04:34:08;43.72;;;22.33;;
76409;SDS011;65238;42.662;23.280;2022-12-08T04:36:33;43.28;;;21.23;;
76409;SDS011;65238;42.662;23.280;2022-12-08T04:38:59;43.13;;;21.60;;
76409;SDS011;65238;42.662;23.280;2022-12-08T04:41:25;39.20;;;20.48;;
76409;SDS011;65238;42.662;23.280;2022-12-08T04:43:50;48.72;;;21.52;;
76409;SDS011;65238;42.662;23.280;2022-12-08T04:46:16;46.80;;;22.65;;
76409;SDS011;65238;42.662;23.280;2022-12-08T04:48:41;40.83;;;20.20;;
76409;SDS011;65238;42.662;23.280;2022-12-08T04:51:06;37.08;;;19.10;;
76409;SDS011;65238;42.662;23.280;2022-12-08T04:53:38;39.63;;;19.08;;
76409;SDS011;65238;42.662;23.280;2022-12-08T04:56:09;37.10;;;19.48;;
76409;SDS011;65238;42.662;23.280;2022-12-08T04:58:35;39.88;;;19.60;;
76409;SDS011;65238;42.662;23.280;2022-12-08T05:01:01;43.92;;;20.85;;
76409;SDS011;65238;42.662;23.280;2022-12-08T05:03:26;40.13;;;19.63;;
76409;SDS011;65238;42.662;23.280;2022-12-08T05:05:51;36.47;;;18.08;;
76409;SDS011;65238;42.662;23.280;2022-12-08T05:08:17;38.33;;;19.17;;
76409;SDS011;65238;42.662;23.280;2022-12-08T05:10:42;39.72;;;19.08;;
76409;SDS011;65238;42.662;23.280;2022-12-08T05:13:08;46.25;;;20.15;;
76409;SDS011;65238;42.662;23.280;2022-12-08T05:15:33;40.00;;;19.00;;
76409;SDS011;65238;42.662;23.280;2022-12-08T05:17:58;41.17;;;19.92;;
76409;SDS011;65238;42.662;23.280;2022-12-08T05:20:24;43.28;;;20.75;;
76409;SDS011;65238;42.662;23.280;2022-12-08T05:22:49;38.28;;;19.77;;
76409;SDS011;65238;42.662;23.280;2022-12-08T05:25:15;39.80;;;20.50;;
76409;SDS011;65238;42.662;23.280;2022-12-08T05:27:41;40.67;;;18.75;;
76409;SDS011;65238;42.662;23.280;2022-12-08T05:30:07;40.88;;;20.25;;
76409;SDS011;65238;42.662;23.280;2022-12-08T05:32:32;39.53;;;20.75;;
76409;SDS011;65238;42.662;23.280;2022-12-08T05:34:58;41.10;;;21.20;;
76409;SDS011;65238;42.662;23.280;2022-12-08T05:37:23;45.33;;;22.33;;
76409;SDS011;65238;42.662;23.280;2022-12-08T05:39:49;45.92;;;22.25;;
76409;SDS011;65238;42.662;23.280;2022-12-08T05:42:14;45.15;;;22.60;;
76409;SDS011;65238;42.662;23.280;2022-12-08T05:44:40;40.88;;;21.80;;
76409;SDS011;65238;42.662;23.280;2022-12-08T05:47:05;44.25;;;23.98;;
76409;SDS011;65238;42.662;23.280;2022-12-08T05:49:31;46.58;;;25.08;;
76409;SDS011;65238;42.662;23.280;2022-12-08T05:51:56;51.10;;;24.15;;
76409;SDS011;65238;42.662;23.280;2022-12-08T05:54:22;55.92;;;24.98;;
76409;SDS011;65238;42.662;23.280;2022-12-08T05:56:48;45.47;;;24.05;;
76409;SDS011;65238;42.662;23.280;2022-12-08T05:59:13;52.50;;;25.55;;
76409;SDS011;65238;42.662;23.280;2022-12-08T06:01:40;52.08;;;24.88;;
76409;SDS011;65238;42.662;23.280;2022-12-08T06:04:06;44.20;;;23.83;;
76409;SDS011;65238;42.662;23.280;2022-12-08T06:06:33;45.80;;;22.85;;
76409;SDS011;65238;42.662;23.280;2022-12-08T06:09:02;46.50;;;25.23;;
76409;SDS011;65238;42.662;23.280;2022-12-08T06:11:29;49.25;;;25.90;;
76409;SDS011;65238;42.662;23.280;2022-12-08T06:13:56;68.45;;;26.98;;
76409;SDS011;65238;42.662;23.280;2022-12-08T06:16:23;51.22;;;26.20;;
76409;SDS011;65238;42.662;23.280;2022-12-08T06:18:50;54.00;;;26.73;;
76409;SDS011;65238;42.662;23.280;2022-12-08T06:21:16;61.35;;;28.67;;
76409;SDS011;65238;42.662;23.280;2022-12-08T06:23:42;63.20;;;31.75;;
76409;SDS011;65238;42.662;23.280;2022-12-08T06:26:09;62.63;;;33.40;;
76409;SDS011;65238;42.662;23.280;2022-12-08T06:28:36;58.72;;;30.85;;
76409;SDS011;65238;42.662;23.280;2022-12-08T06:31:06;65.25;;;33.75;;
76409;SDS011;65238;42.662;23.280;2022-12-08T06:33:33;75.53;;;35.70;;
76409;SDS011;65238;42.662;23.280;2022-12-08T06:35:58;77.75;;;33.90;;
76409;SDS011;65238;42.662;23.280;2022-12-08T06:38:23;66.10;;;32.63;;
76409;SDS011;65238;42.662;23.280;2022-12-08T06:40:55;66.35;;;34.85;;
76409;SDS011;65238;42.662;23.280;2022-12-08T06:43:21;65.13;;;34.25;;
76409;SDS011;65238;42.662;23.280;2022-12-08T06:45:47;75.38;;;34.45;;
76409;SDS011;65238;42.662;23.280;2022-12-08T06:48:12;66.78;;;33.58;;
76409;SDS011;65238;42.662;23.280;2022-12-08T06:50:37;68.07;;;32.40;;
76409;SDS011;65238;42.662;23.280;2022-12-08T06:53:03;62.72;;;31.58;;
76409;SDS011;65238;42.662;23.280;2022-12-08T06:55:28;65.97;;;31.50;;
76409;SDS011;65238;42.662;23.280;2022-12-08T06:57:54;62.60;;;31.70;;
76409;SDS011;65238;42.662;23.280;2022-12-08T07:00:19;67.75;;;32.80;;
76409;SDS011;65238;42.662;23.280;2022-12-08T07:02:45;71.35;;;33.35;;
76409;SDS011;65238;42.662;23.280;2022-12-08T07:05:10;57.38;;;31.60;;
76409;SDS011;65238;42.662;23.280;2022-12-08T07:07:36;77.05;;;33.45;;
76409;SDS011;65238;42.662;23.280;2022-12-08T07:10:01;68.72;;;33.28;;
76409;SDS011;65238;42.662;23.280;2022-12-08T07:12:27;74.90;;;35.35;;
76409;SDS011;65238;42.662;23.280;2022-12-08T07:14:52;69.47;;;34.05;;
76409;SDS011;65238;42.662;23.280;2022-12-08T07:17:17;71.53;;;36.92;;
76409;SDS011;65238;42.662;23.280;2022-12-08T07:19:43;73.43;;;34.58;;
76409;SDS011;65238;42.662;23.280;2022-12-08T07:22:08;70.30;;;36.63;;
76409;SDS011;65238;42.662;23.280;2022-12-08T07:24:33;67.00;;;35.25;;
76409;SDS011;65238;42.662;23.280;2022-12-08T07:26:59;64.78;;;32.90;;
76409;SDS011;65238;42.662;23.280;2022-12-08T07:29:24;62.20;;;32.90;;
76409;SDS011;65238;42.662;23.280;2022-12-08T07:31:50;71.90;;;33.50;;
76409;SDS011;65238;42.662;23.280;2022-12-08T07:34:15;72.72;;;38.88;;
76409;SDS011;65238;42.662;23.280;2022-12-08T07:36:41;78.22;;;39.13;;
76409;SDS011;65238;42.662;23.280;2022-12-08T07:39:06;75.53;;;37.85;;
76409;SDS011;65238;42.662;23.280;2022-12-08T07:41:32;68.15;;;37.03;;
76409;SDS011;65238;42.662;23.280;2022-12-08T07:43:57;71.18;;;34.03;;
76409;SDS011;65238;42.662;23.280;2022-12-08T07:46:23;83.03;;;37.20;;
76409;SDS011;65238;42.662;23.280;2022-12-08T07:48:50;68.55;;;35.35;;
76409;SDS011;65238;42.662;23.280;2022-12-08T07:51:18;72.78;;;38.72;;
76409;SDS011;65238;42.662;23.280;2022-12-08T07:53:45;84.38;;;43.08;;
76409;SDS011;65238;42.662;23.280;2022-12-08T07:56:12;84.47;;;41.22;;
76409;SDS011;65238;42.662;23.280;2022-12-08T07:58:38;71.13;;;37.78;;
76409;SDS011;65238;42.662;23.280;2022-12-08T08:01:04;71.32;;;35.22;;
76409;SDS011;65238;42.662;23.280;2022-12-08T08:03:30;70.22;;;35.45;;
76409;SDS011;65238;42.662;23.280;2022-12-08T08:06:01;58.58;;;34.22;;
76409;SDS011;65238;42.662;23.280;2022-12-08T08:08:27;73.07;;;34.67;;
76409;SDS011;65238;42.662;23.280;2022-12-08T08:10:52;63.25;;;32.40;;
76409;SDS011;65238;42.662;23.280;2022-12-08T08:13:18;72.53;;;35.53;;
76409;SDS011;65238;42.662;23.280;2022-12-08T08:15:43;65.25;;;33.35;;
76409;SDS011;65238;42.662;23.280;2022-12-08T08:18:08;64.22;;;33.67;;
76409;SDS011;65238;42.662;23.280;2022-12-08T08:20:34;64.78;;;32.60;;
76409;SDS011;65238;42.662;23.280;2022-12-08T08:22:59;58.63;;;30.10;;
76409;SDS011;65238;42.662;23.280;2022-12-08T08:25:25;58.67;;;30.63;;
76409;SDS011;65238;42.662;23.280;2022-12-08T08:27:50;61.58;;;31.92;;
76409;SDS011;65238;42.662;23.280;2022-12-08T08:30:16;57.10;;;30.23;;
76409;SDS011;65238;42.662;23.280;2022-12-08T08:32:41;56.78;;;28.13;;
76409;SDS011;65238;42.662;23.280;2022-12-08T08:35:07;51.72;;;27.80;;
76409;SDS011;65238;42.662;23.280;2022-12-08T08:37:33;52.75;;;27.85;;
76409;SDS011;65238;42.662;23.280;2022-12-08T08:39:59;55.92;;;26.90;;
76409;SDS011;65238;42.662;23.280;2022-12-08T08:42:24;59.42;;;29.17;;
76409;SDS011;65238;42.662;23.280;2022-12-08T08:44:50;69.97;;;29.48;;
76409;SDS011;65238;42.662;23.280;2022-12-08T08:47:15;53.60;;;28.15;;
76409;SDS011;65238;42.662;23.280;2022-12-08T08:49:41;58.58;;;29.60;;
76409;SDS011;65238;42.662;23.280;2022-12-08T08:52:06;53.03;;;27.85;;
76409;SDS011;65238;42.662;23.280;2022-12-08T08:54:32;53.75;;;28.40;;
76409;SDS011;65238;42.662;23.280;2022-12-08T08:56:58;64.30;;;30.42;;
76409;SDS011;65238;42.662;23.280;2022-12-08T08:59:24;60.67;;;30.60;;
76409;SDS011;65238;42.662;23.280;2022-12-08T09:01:50;66.60;;;29.23;;
76409;SDS011;65238;42.662;23.280;2022-12-08T09:04:15;60.03;;;28.85;;
76409;SDS011;65238;42.662;23.280;2022-12-08T09:06:41;64.10;;;29.95;;
76409;SDS011;65238;42.662;23.280;2022-12-08T09:09:08;59.33;;;30.42;;
76409;SDS011;65238;42.662;23.280;2022-12-08T09:11:33;74.75;;;35.78;;
76409;SDS011;65238;42.662;23.280;2022-12-08T09:13:59;68.90;;;33.33;;
76409;SDS011;65238;42.662;23.280;2022-12-08T09:16:24;71.90;;;35.53;;
76409;SDS011;65238;42.662;23.280;2022-12-08T09:18:50;65.25;;;32.00;;
76409;SDS011;65238;42.662;23.280;2022-12-08T09:21:18;69.82;;;35.33;;
76409;SDS011;65238;42.662;23.280;2022-12-08T09:23:47;69.10;;;37.13;;
76409;SDS011;65238;42.662;23.280;2022-12-08T09:26:13;71.93;;;38.00;;
76409;SDS011;65238;42.662;23.280;2022-12-08T09:28:38;74.68;;;37.47;;
76409;SDS011;65238;42.662;23.280;2022-12-08T09:31:04;70.55;;;35.80;;
76409;SDS011;65238;42.662;23.280;2022-12-08T09:33:29;68.80;;;34.78;;
76409;SDS011;65238;42.662;23.280;2022-12-08T09:35:55;65.70;;;34.08;;
76409;SDS011;65238;42.662;23.280;2022-12-08T09:38:21;65.30;;;36.45;;
76409;SDS011;65238;42.662;23.280;2022-12-08T09:40:51;69.18;;;34.58;;
76409;SDS011;65238;42.662;23.280;2022-12-08T09:46:05;75.15;;;36.35;;
76409;SDS011;65238;42.662;23.280;2022-12-08T09:48:34;74.90;;;37.08;;
76409;SDS011;65238;42.662;23.280;2022-12-08T09:51:01;66.78;;;32.92;;
76409;SDS011;65238;42.662;23.280;2022-12-08T09:53:29;65.50;;;32.88;;
76409;SDS011;65238;42.662;23.280;2022-12-08T09:56:00;65.03;;;33.28;;
76409;SDS011;65238;42.662;23.280;2022-12-08T09:59:00;62.25;;;29.90;;
76409;SDS011;65238;42.662;23.280;2022-12-08T10:01:28;48.35;;;24.10;;
76409;SDS011;65238;42.662;23.280;2022-12-08T10:03:55;50.03;;;25.10;;
76409;SDS011;65238;42.662;23.280;2022-12-08T10:15:29;50.55;;;26.15;;
76409;SDS011;65238;42.662;23.280;2022-12-08T10:17:59;62.22;;;29.38;;
76409;SDS011;65238;42.662;23.280;2022-12-08T10:20:31;61.28;;;28.92;;
76409;SDS011;65238;42.662;23.280;2022-12-08T10:25:47;47.38;;;24.63;;
76409;SDS011;65238;42.662;23.280;2022-12-08T10:28:13;56.03;;;27.95;;
76409;SDS011;65238;42.662;23.280;2022-12-08T10:30:39;50.95;;;26.10;;
76409;SDS011;65238;42.662;23.280;2022-12-08T10:33:04;59.78;;;27.17;;
76409;SDS011;65238;42.662;23.280;2022-12-08T10:38:14;64.15;;;28.88;;
76409;SDS011;65238;42.662;23.280;2022-12-08T10:40:45;53.70;;;27.33;;
76409;SDS011;65238;42.662;23.280;2022-12-08T10:43:14;52.05;;;27.08;;
76409;SDS011;65238;42.662;23.280;2022-12-08T10:45:48;48.20;;;26.90;;
76409;SDS011;65238;42.662;23.280;2022-12-08T10:48:25;41.90;;;24.52;;
76409;SDS011;65238;42.662;23.280;2022-12-08T10:50:55;50.22;;;24.23;;
76409;SDS011;65238;42.662;23.280;2022-12-08T10:53:26;47.50;;;22.42;;
76409;SDS011;65238;42.662;23.280;2022-12-08T10:56:04;40.20;;;22.15;;
76409;SDS011;65238;42.662;23.280;2022-12-08T11:01:16;32.80;;;17.65;;
76409;SDS011;65238;42.662;23.280;2022-12-08T11:03:43;38.50;;;17.92;;
76409;SDS011;65238;42.662;23.280;2022-12-08T11:06:14;42.58;;;19.60;;
76409;SDS011;65238;42.662;23.280;2022-12-08T11:11:13;36.05;;;17.05;;
76409;SDS011;65238;42.662;23.280;2022-12-08T11:13:40;34.67;;;16.55;;
76409;SDS011;65238;42.662;23.280;2022-12-08T11:16:05;32.42;;;16.30;;
76409;SDS011;65238;42.662;23.280;2022-12-08T11:21:21;30.73;;;15.15;;
76409;SDS011;65238;42.662;23.280;2022-12-08T11:23:57;28.30;;;15.15;;
76409;SDS011;65238;42.662;23.280;2022-12-08T11:26:25;30.70;;;13.38;;
76409;SDS011;65238;42.662;23.280;2022-12-08T11:28:53;33.30;;;14.38;;
76409;SDS011;65238;42.662;23.280;2022-12-08T11:31:21;29.65;;;14.45;;
76409;SDS011;65238;42.662;23.280;2022-12-08T11:33:51;34.35;;;14.07;;
76409;SDS011;65238;42.662;23.280;2022-12-08T11:36:17;25.35;;;14.20;;
76409;SDS011;65238;42.662;23.280;2022-12-08T11:38:45;21.05;;;10.77;;
76409;SDS011;65238;42.662;23.280;2022-12-08T11:41:16;31.08;;;11.70;;
76409;SDS011;65238;42.662;23.280;2022-12-08T11:46:39;27.27;;;13.07;;
76409;SDS011;65238;42.662;23.280;2022-12-08T11:51:52;25.88;;;12.68;;
76409;SDS011;65238;42.662;23.280;2022-12-08T11:57:00;20.65;;;10.45;;
76409;SDS011;65238;42.662;23.280;2022-12-08T11:59:29;24.15;;;10.98;;
76409;SDS011;65238;42.662;23.280;2022-12-08T12:01:56;23.30;;;11.55;;
76409;SDS011;65238;42.662;23.280;2022-12-08T12:04:37;27.30;;;12.60;;
76409;SDS011;65238;42.662;23.280;2022-12-08T12:12:50;25.40;;;11.75;;
76409;SDS011;65238;42.662;23.280;2022-12-08T12:20:49;27.45;;;11.98;;
76409;SDS011;65238;42.662;23.280;2022-12-08T12:26:00;27.98;;;13.25;;
76409;SDS011;65238;42.662;23.280;2022-12-08T12:28:29;27.08;;;11.93;;
76409;SDS011;65238;42.662;23.280;2022-12-08T12:31:09;25.35;;;12.25;;
76409;SDS011;65238;42.662;23.280;2022-12-08T12:33:36;25.88;;;11.75;;
76409;SDS011;65238;42.662;23.280;2022-12-08T12:36:03;19.83;;;11.07;;
76409;SDS011;65238;42.662;23.280;2022-12-08T12:38:34;22.52;;;11.55;;
76409;SDS011;65238;42.662;23.280;2022-12-08T12:41:55;22.42;;;11.00;;
76409;SDS011;65238;42.662;23.280;2022-12-08T12:49:46;23.85;;;12.13;;
76409;SDS011;65238;42.662;23.280;2022-12-08T12:52:04;19.50;;;10.93;;
76409;SDS011;65238;42.662;23.280;2022-12-08T12:57:24;30.15;;;12.18;;
76409;SDS011;65238;42.662;23.280;2022-12-08T13:02:19;18.15;;;9.77;;
76409;SDS011;65238;42.662;23.280;2022-12-08T13:05:08;26.15;;;10.85;;
76409;SDS011;65238;42.662;23.280;2022-12-08T13:07:41;22.50;;;10.52;;
76409;SDS011;65238;42.662;23.280;2022-12-08T13:10:24;23.90;;;10.50;;
76409;SDS011;65238;42.662;23.280;2022-12-08T13:18:24;19.48;;;9.60;;
76409;SDS011;65238;42.662;23.280;2022-12-08T13:21:30;27.08;;;9.73;;
76409;SDS011;65238;42.662;23.280;2022-12-08T13:29:28;17.80;;;9.77;;
76409;SDS011;65238;42.662;23.280;2022-12-08T13:37:43;20.88;;;9.93;;
76409;SDS011;65238;42.662;23.280;2022-12-08T13:45:41;21.92;;;10.23;;
76409;SDS011;65238;42.662;23.280;2022-12-08T13:48:21;20.35;;;10.55;;
76409;SDS011;65238;42.662;23.280;2022-12-08T13:51:05;20.92;;;10.70;;
76409;SDS011;65238;42.662;23.280;2022-12-08T13:53:38;25.60;;;11.18;;
76409;SDS011;65238;42.662;23.280;2022-12-08T13:56:04;21.42;;;11.90;;
76409;SDS011;65238;42.662;23.280;2022-12-08T13:58:32;22.13;;;11.38;;
76409;SDS011;65238;42.662;23.280;2022-12-08T14:08:59;22.25;;;12.20;;
76409;SDS011;65238;42.662;23.280;2022-12-08T14:11:29;21.90;;;12.15;;
76409;SDS011;65238;42.662;23.280;2022-12-08T14:13:59;24.75;;;12.63;;
76409;SDS011;65238;42.662;23.280;2022-12-08T14:16:37;25.02;;;13.20;;
76409;SDS011;65238;42.662;23.280;2022-12-08T14:19:05;25.85;;;12.60;;
76409;SDS011;65238;42.662;23.280;2022-12-08T14:21:34;24.17;;;12.20;;
76409;SDS011;65238;42.662;23.280;2022-12-08T14:24:00;25.00;;;13.32;;
76409;SDS011;65238;42.662;23.280;2022-12-08T14:26:29;27.77;;;12.27;;
76409;SDS011;65238;42.662;23.280;2022-12-08T14:28:56;23.42;;;13.43;;
76409;SDS011;65238;42.662;23.280;2022-12-08T14:31:22;29.35;;;13.55;;
76409;SDS011;65238;42.662;23.280;2022-12-08T14:33:47;26.50;;;13.07;;
76409;SDS011;65238;42.662;23.280;2022-12-08T14:36:12;26.90;;;13.68;;
76409;SDS011;65238;42.662;23.280;2022-12-08T14:38:39;25.50;;;12.93;;
76409;SDS011;65238;42.662;23.280;2022-12-08T14:41:06;23.05;;;12.27;;
76409;SDS011;65238;42.662;23.280;2022-12-08T14:43:33;27.02;;;12.60;;
76409;SDS011;65238;42.662;23.280;2022-12-08T14:45:59;28.05;;;11.68;;
76409;SDS011;65238;42.662;23.280;2022-12-08T15:01:44;34.33;;;16.85;;
76409;SDS011;65238;42.662;23.280;2022-12-08T15:12:31;42.00;;;21.77;;
76409;SDS011;65238;42.662;23.280;2022-12-08T15:17:30;44.53;;;22.92;;
76409;SDS011;65238;42.662;23.280;2022-12-08T15:19:59;48.85;;;20.52;;
76409;SDS011;65238;42.662;23.280;2022-12-08T15:22:26;40.38;;;20.67;;
76409;SDS011;65238;42.662;23.280;2022-12-08T15:24:52;39.70;;;20.33;;
76409;SDS011;65238;42.662;23.280;2022-12-08T15:27:18;43.30;;;20.02;;
76409;SDS011;65238;42.662;23.280;2022-12-08T15:29:47;41.58;;;19.80;;
76409;SDS011;65238;42.662;23.280;2022-12-08T15:32:16;42.22;;;20.98;;
76409;SDS011;65238;42.662;23.280;2022-12-08T15:34:43;43.47;;;21.45;;
76409;SDS011;65238;42.662;23.280;2022-12-08T15:37:15;47.53;;;21.90;;
76409;SDS011;65238;42.662;23.280;2022-12-08T15:39:44;37.10;;;20.95;;
76409;SDS011;65238;42.662;23.280;2022-12-08T15:42:10;42.70;;;20.50;;
76409;SDS011;65238;42.662;23.280;2022-12-08T15:44:37;47.67;;;25.45;;
76409;SDS011;65238;42.662;23.280;2022-12-08T15:47:02;50.50;;;24.25;;
76409;SDS011;65238;42.662;23.280;2022-12-08T15:49:28;48.85;;;23.45;;
76409;SDS011;65238;42.662;23.280;2022-12-08T15:51:53;46.33;;;23.10;;
76409;SDS011;65238;42.662;23.280;2022-12-08T15:54:20;43.50;;;22.15;;
76409;SDS011;65238;42.662;23.280;2022-12-08T15:56:48;41.05;;;22.20;;
76409;SDS011;65238;42.662;23.280;2022-12-08T15:59:18;36.53;;;20.02;;
76409;SDS011;65238;42.662;23.280;2022-12-08T16:01:48;41.83;;;18.88;;
76409;SDS011;65238;42.662;23.280;2022-12-08T16:04:14;36.90;;;18.08;;
76409;SDS011;65238;42.662;23.280;2022-12-08T16:06:42;45.20;;;20.45;;
76409;SDS011;65238;42.662;23.280;2022-12-08T16:12:15;47.28;;;20.48;;
76409;SDS011;65238;42.662;23.280;2022-12-08T16:15:00;42.40;;;20.98;;
76409;SDS011;65238;42.662;23.280;2022-12-08T16:17:27;41.00;;;19.58;;
76409;SDS011;65238;42.662;23.280;2022-12-08T16:19:52;42.85;;;19.98;;
76409;SDS011;65238;42.662;23.280;2022-12-08T16:22:19;44.10;;;19.95;;
76409;SDS011;65238;42.662;23.280;2022-12-08T16:24:49;42.03;;;21.48;;
76409;SDS011;65238;42.662;23.280;2022-12-08T16:27:20;54.80;;;21.92;;
76409;SDS011;65238;42.662;23.280;2022-12-08T16:29:47;55.03;;;27.27;;
76409;SDS011;65238;42.662;23.280;2022-12-08T16:32:15;55.85;;;27.88;;
76409;SDS011;65238;42.662;23.280;2022-12-08T16:34:41;56.58;;;25.92;;
76409;SDS011;65238;42.662;23.280;2022-12-08T16:37:14;49.17;;;24.23;;
76409;SDS011;65238;42.662;23.280;2022-12-08T16:39:40;52.17;;;26.63;;
76409;SDS011;65238;42.662;23.280;2022-12-08T16:42:10;51.25;;;23.73;;